sensor_id;sensor_type;location;lat;lon;timestamp;P1;durP1;ratioP1;P2;durP2;ratioP2
22144;SDS011;11238;48.730;11.566;2022-10-17T00:01:11;8.65;;;5.10;;
22144;SDS011;11238;48.730;11.566;2022-10-17T00:03:38;7.57;;;4.57;;
22144;SDS011;11238;48.730;11.566;2022-10-17T00:06:06;8.48;;;4.93;;
22144;SDS011;11238;48.730;11.566;2022-10-17T00:08:33;6.00;;;4.55;;
22144;SDS011;11238;48.730;11.566;2022-10-17T00:11:01;7.38;;;4.65;;
22144;SDS011;11238;48.730;11.566;2022-10-17T00:13:32;7.85;;;4.70;;
22144;SDS011;11238;48.730;11.566;2022-10-17T00:15:59;7.25;;;4.97;;
22144;SDS011;11238;48.730;11.566;2022-10-17T00:18:25;10.43;;;4.82;;
22144;SDS011;11238;48.730;11.566;2022-10-17T00:20:52;9.85;;;4.75;;
22144;SDS011;11238;48.730;11.566;2022-10-17T00:23:18;8.07;;;4.90;;
22144;SDS011;11238;48.730;11.566;2022-10-17T00:25:43;10.60;;;5.22;;
22144;SDS011;11238;48.730;11.566;2022-10-17T00:28:13;13.25;;;4.68;;
22144;SDS011;11238;48.730;11.566;2022-10-17T00:30:39;8.02;;;5.10;;
22144;SDS011;11238;48.730;11.566;2022-10-17T00:33:05;7.32;;;5.20;;
22144;SDS011;11238;48.730;11.566;2022-10-17T00:35:31;9.77;;;4.97;;
22144;SDS011;11238;48.730;11.566;2022-10-17T00:37:57;7.72;;;5.20;;
22144;SDS011;11238;48.730;11.566;2022-10-17T00:40:24;8.38;;;4.50;;
22144;SDS011;11238;48.730;11.566;2022-10-17T00:42:50;5.40;;;4.82;;
22144;SDS011;11238;48.730;11.566;2022-10-17T00:45:19;7.32;;;5.30;;
22144;SDS011;11238;48.730;11.566;2022-10-17T00:47:55;6.50;;;4.90;;
22144;SDS011;11238;48.730;11.566;2022-10-17T00:50:25;9.98;;;4.75;;
22144;SDS011;11238;48.730;11.566;2022-10-17T00:52:51;7.20;;;4.70;;
22144;SDS011;11238;48.730;11.566;2022-10-17T00:55:26;6.30;;;4.70;;
22144;SDS011;11238;48.730;11.566;2022-10-17T00:57:54;10.07;;;4.93;;
22144;SDS011;11238;48.730;11.566;2022-10-17T01:00:21;6.70;;;4.72;;
22144;SDS011;11238;48.730;11.566;2022-10-17T01:02:47;7.15;;;4.65;;
22144;SDS011;11238;48.730;11.566;2022-10-17T01:05:15;6.90;;;4.70;;
22144;SDS011;11238;48.730;11.566;2022-10-17T01:07:42;6.30;;;4.32;;
22144;SDS011;11238;48.730;11.566;2022-10-17T01:10:10;6.38;;;4.28;;
22144;SDS011;11238;48.730;11.566;2022-10-17T01:12:56;8.88;;;4.78;;
22144;SDS011;11238;48.730;11.566;2022-10-17T01:15:47;6.88;;;4.75;;
22144;SDS011;11238;48.730;11.566;2022-10-17T01:18:57;10.10;;;4.53;;
22144;SDS011;11238;48.730;11.566;2022-10-17T01:24:27;7.72;;;4.32;;
22144;SDS011;11238;48.730;11.566;2022-10-17T01:27:28;6.28;;;4.68;;
22144;SDS011;11238;48.730;11.566;2022-10-17T01:33:16;8.65;;;4.65;;
22144;SDS011;11238;48.730;11.566;2022-10-17T01:38:45;5.47;;;4.65;;
22144;SDS011;11238;48.730;11.566;2022-10-17T01:41:32;7.35;;;5.05;;
22144;SDS011;11238;48.730;11.566;2022-10-17T01:44:12;8.85;;;5.55;;
22144;SDS011;11238;48.730;11.566;2022-10-17T01:46:53;7.88;;;5.00;;
22144;SDS011;11238;48.730;11.566;2022-10-17T01:49:26;8.40;;;4.32;;
22144;SDS011;11238;48.730;11.566;2022-10-17T01:52:32;7.30;;;4.63;;
22144;SDS011;11238;48.730;11.566;2022-10-17T01:54:57;8.73;;;5.40;;
22144;SDS011;11238;48.730;11.566;2022-10-17T01:57:36;7.60;;;5.68;;
22144;SDS011;11238;48.730;11.566;2022-10-17T02:00:07;13.93;;;5.45;;
22144;SDS011;11238;48.730;11.566;2022-10-17T02:02:40;8.25;;;5.97;;
22144;SDS011;11238;48.730;11.566;2022-10-17T02:05:09;11.18;;;5.82;;
22144;SDS011;11238;48.730;11.566;2022-10-17T02:07:35;7.95;;;5.30;;
22144;SDS011;11238;48.730;11.566;2022-10-17T02:10:02;8.65;;;5.10;;
22144;SDS011;11238;48.730;11.566;2022-10-17T02:12:44;9.85;;;5.75;;
22144;SDS011;11238;48.730;11.566;2022-10-17T02:15:38;10.45;;;5.43;;
22144;SDS011;11238;48.730;11.566;2022-10-17T02:23:54;6.50;;;5.10;;
22144;SDS011;11238;48.730;11.566;2022-10-17T02:26:34;11.87;;;5.87;;
22144;SDS011;11238;48.730;11.566;2022-10-17T02:29:29;7.32;;;5.28;;
22144;SDS011;11238;48.730;11.566;2022-10-17T02:32:19;9.77;;;4.90;;
22144;SDS011;11238;48.730;11.566;2022-10-17T02:34:51;9.18;;;5.32;;
22144;SDS011;11238;48.730;11.566;2022-10-17T02:37:22;11.15;;;6.07;;
22144;SDS011;11238;48.730;11.566;2022-10-17T02:39:52;10.25;;;5.57;;
22144;SDS011;11238;48.730;11.566;2022-10-17T02:42:20;7.38;;;5.50;;
22144;SDS011;11238;48.730;11.566;2022-10-17T02:44:47;37.45;;;7.38;;
22144;SDS011;11238;48.730;11.566;2022-10-17T02:47:24;8.65;;;5.85;;
22144;SDS011;11238;48.730;11.566;2022-10-17T02:49:57;9.30;;;6.22;;
22144;SDS011;11238;48.730;11.566;2022-10-17T02:55:13;26.17;;;7.70;;
22144;SDS011;11238;48.730;11.566;2022-10-17T02:57:56;17.52;;;7.85;;
22144;SDS011;11238;48.730;11.566;2022-10-17T03:00:25;10.90;;;7.22;;
22144;SDS011;11238;48.730;11.566;2022-10-17T03:02:54;13.27;;;7.47;;
22144;SDS011;11238;48.730;11.566;2022-10-17T03:05:22;20.55;;;11.63;;
22144;SDS011;11238;48.730;11.566;2022-10-17T03:07:53;37.05;;;20.45;;
22144;SDS011;11238;48.730;11.566;2022-10-17T03:10:21;55.17;;;30.98;;
22144;SDS011;11238;48.730;11.566;2022-10-17T03:12:47;26.10;;;15.85;;
22144;SDS011;11238;48.730;11.566;2022-10-17T03:15:14;18.35;;;12.48;;
22144;SDS011;11238;48.730;11.566;2022-10-17T03:17:40;15.43;;;11.63;;
22144;SDS011;11238;48.730;11.566;2022-10-17T03:20:07;14.98;;;10.05;;
22144;SDS011;11238;48.730;11.566;2022-10-17T03:22:33;10.80;;;7.70;;
22144;SDS011;11238;48.730;11.566;2022-10-17T03:25:01;12.07;;;8.05;;
22144;SDS011;11238;48.730;11.566;2022-10-17T03:27:27;22.33;;;8.68;;
22144;SDS011;11238;48.730;11.566;2022-10-17T03:29:53;20.98;;;9.00;;
22144;SDS011;11238;48.730;11.566;2022-10-17T03:32:19;50.55;;;10.15;;
22144;SDS011;11238;48.730;11.566;2022-10-17T03:34:45;23.20;;;9.50;;
22144;SDS011;11238;48.730;11.566;2022-10-17T03:37:11;60.22;;;12.23;;
22144;SDS011;11238;48.730;11.566;2022-10-17T03:39:38;10.40;;;7.78;;
22144;SDS011;11238;48.730;11.566;2022-10-17T03:42:04;13.10;;;7.55;;
22144;SDS011;11238;48.730;11.566;2022-10-17T03:44:30;12.23;;;8.13;;
22144;SDS011;11238;48.730;11.566;2022-10-17T03:46:57;10.30;;;6.65;;
22144;SDS011;11238;48.730;11.566;2022-10-17T03:49:23;25.33;;;7.50;;
22144;SDS011;11238;48.730;11.566;2022-10-17T03:51:49;11.70;;;7.57;;
22144;SDS011;11238;48.730;11.566;2022-10-17T03:54:16;10.57;;;6.85;;
22144;SDS011;11238;48.730;11.566;2022-10-17T03:56:42;10.85;;;7.80;;
22144;SDS011;11238;48.730;11.566;2022-10-17T03:59:12;12.80;;;7.90;;
22144;SDS011;11238;48.730;11.566;2022-10-17T04:01:39;13.25;;;8.52;;
22144;SDS011;11238;48.730;11.566;2022-10-17T04:04:06;13.75;;;7.55;;
22144;SDS011;11238;48.730;11.566;2022-10-17T04:06:34;10.68;;;7.20;;
22144;SDS011;11238;48.730;11.566;2022-10-17T04:09:00;11.45;;;7.95;;
22144;SDS011;11238;48.730;11.566;2022-10-17T04:11:40;12.88;;;8.38;;
22144;SDS011;11238;48.730;11.566;2022-10-17T04:14:06;14.82;;;9.02;;
22144;SDS011;11238;48.730;11.566;2022-10-17T04:16:32;16.17;;;9.07;;
22144;SDS011;11238;48.730;11.566;2022-10-17T04:19:01;12.60;;;8.88;;
22144;SDS011;11238;48.730;11.566;2022-10-17T04:21:32;20.73;;;10.65;;
22144;SDS011;11238;48.730;11.566;2022-10-17T04:24:03;20.10;;;10.63;;
22144;SDS011;11238;48.730;11.566;2022-10-17T04:26:42;24.33;;;12.43;;
22144;SDS011;11238;48.730;11.566;2022-10-17T04:29:10;26.23;;;12.93;;
22144;SDS011;11238;48.730;11.566;2022-10-17T04:31:37;19.70;;;11.80;;
22144;SDS011;11238;48.730;11.566;2022-10-17T04:34:11;18.40;;;10.00;;
22144;SDS011;11238;48.730;11.566;2022-10-17T04:36:38;25.45;;;14.73;;
22144;SDS011;11238;48.730;11.566;2022-10-17T04:39:05;18.15;;;9.60;;
22144;SDS011;11238;48.730;11.566;2022-10-17T04:41:34;12.65;;;8.85;;
22144;SDS011;11238;48.730;11.566;2022-10-17T04:44:00;13.60;;;6.95;;
22144;SDS011;11238;48.730;11.566;2022-10-17T04:46:28;35.95;;;9.90;;
22144;SDS011;11238;48.730;11.566;2022-10-17T04:48:53;13.73;;;9.43;;
22144;SDS011;11238;48.730;11.566;2022-10-17T04:51:20;20.88;;;7.50;;
22144;SDS011;11238;48.730;11.566;2022-10-17T04:54:06;36.10;;;6.80;;
22144;SDS011;11238;48.730;11.566;2022-10-17T04:56:33;13.73;;;6.88;;
22144;SDS011;11238;48.730;11.566;2022-10-17T04:58:58;22.05;;;7.57;;
22144;SDS011;11238;48.730;11.566;2022-10-17T05:01:25;13.55;;;7.00;;
22144;SDS011;11238;48.730;11.566;2022-10-17T05:03:52;14.18;;;6.38;;
22144;SDS011;11238;48.730;11.566;2022-10-17T05:06:19;19.10;;;5.53;;
22144;SDS011;11238;48.730;11.566;2022-10-17T05:09:03;24.55;;;5.80;;
22144;SDS011;11238;48.730;11.566;2022-10-17T05:11:29;33.55;;;6.18;;
22144;SDS011;11238;48.730;11.566;2022-10-17T05:13:56;32.17;;;5.78;;
22144;SDS011;11238;48.730;11.566;2022-10-17T05:16:24;27.75;;;6.40;;
22144;SDS011;11238;48.730;11.566;2022-10-17T05:18:53;8.32;;;5.90;;
22144;SDS011;11238;48.730;11.566;2022-10-17T05:21:21;13.30;;;3.95;;
22144;SDS011;11238;48.730;11.566;2022-10-17T05:23:48;5.20;;;4.07;;
22144;SDS011;11238;48.730;11.566;2022-10-17T05:26:14;5.60;;;4.25;;
22144;SDS011;11238;48.730;11.566;2022-10-17T05:28:40;8.00;;;4.35;;
22144;SDS011;11238;48.730;11.566;2022-10-17T05:31:07;23.90;;;5.68;;
22144;SDS011;11238;48.730;11.566;2022-10-17T05:33:35;32.30;;;7.38;;
22144;SDS011;11238;48.730;11.566;2022-10-17T05:36:02;9.60;;;6.60;;
22144;SDS011;11238;48.730;11.566;2022-10-17T05:38:28;8.73;;;6.18;;
22144;SDS011;11238;48.730;11.566;2022-10-17T05:41:01;16.52;;;6.70;;
22144;SDS011;11238;48.730;11.566;2022-10-17T05:43:29;30.00;;;7.70;;
22144;SDS011;11238;48.730;11.566;2022-10-17T05:45:55;26.40;;;7.97;;
22144;SDS011;11238;48.730;11.566;2022-10-17T05:48:22;13.85;;;7.53;;
22144;SDS011;11238;48.730;11.566;2022-10-17T05:50:48;16.08;;;8.60;;
22144;SDS011;11238;48.730;11.566;2022-10-17T05:53:16;12.85;;;7.38;;
22144;SDS011;11238;48.730;11.566;2022-10-17T05:55:58;11.03;;;8.23;;
22144;SDS011;11238;48.730;11.566;2022-10-17T05:58:26;17.90;;;8.18;;
22144;SDS011;11238;48.730;11.566;2022-10-17T06:00:58;12.07;;;7.82;;
22144;SDS011;11238;48.730;11.566;2022-10-17T06:03:26;14.23;;;8.13;;
22144;SDS011;11238;48.730;11.566;2022-10-17T06:05:52;19.85;;;8.30;;
22144;SDS011;11238;48.730;11.566;2022-10-17T06:08:18;11.65;;;8.18;;
22144;SDS011;11238;48.730;11.566;2022-10-17T06:10:48;10.18;;;7.45;;
22144;SDS011;11238;48.730;11.566;2022-10-17T06:13:15;41.65;;;8.85;;
22144;SDS011;11238;48.730;11.566;2022-10-17T06:15:43;11.27;;;8.00;;
22144;SDS011;11238;48.730;11.566;2022-10-17T06:18:10;17.58;;;7.60;;
22144;SDS011;11238;48.730;11.566;2022-10-17T06:20:35;9.85;;;7.30;;
22144;SDS011;11238;48.730;11.566;2022-10-17T06:23:02;27.63;;;8.05;;
22144;SDS011;11238;48.730;11.566;2022-10-17T06:25:57;26.15;;;8.65;;
22144;SDS011;11238;48.730;11.566;2022-10-17T06:28:24;17.88;;;8.18;;
22144;SDS011;11238;48.730;11.566;2022-10-17T06:30:50;9.85;;;7.93;;
22144;SDS011;11238;48.730;11.566;2022-10-17T06:33:15;17.70;;;8.60;;
22144;SDS011;11238;48.730;11.566;2022-10-17T06:35:42;12.43;;;8.40;;
22144;SDS011;11238;48.730;11.566;2022-10-17T06:38:09;13.43;;;8.55;;
22144;SDS011;11238;48.730;11.566;2022-10-17T06:40:35;10.50;;;6.18;;
22144;SDS011;11238;48.730;11.566;2022-10-17T06:43:01;11.35;;;5.85;;
22144;SDS011;11238;48.730;11.566;2022-10-17T06:45:53;10.50;;;5.97;;
22144;SDS011;11238;48.730;11.566;2022-10-17T06:48:42;12.85;;;5.88;;
22144;SDS011;11238;48.730;11.566;2022-10-17T06:51:28;7.65;;;5.55;;
22144;SDS011;11238;48.730;11.566;2022-10-17T06:53:57;15.52;;;6.70;;
22144;SDS011;11238;48.730;11.566;2022-10-17T06:56:34;12.90;;;6.97;;
22144;SDS011;11238;48.730;11.566;2022-10-17T07:01:57;12.70;;;7.60;;
22144;SDS011;11238;48.730;11.566;2022-10-17T07:04:23;38.53;;;7.72;;
22144;SDS011;11238;48.730;11.566;2022-10-17T07:06:49;19.27;;;7.13;;
22144;SDS011;11238;48.730;11.566;2022-10-17T07:09:19;13.35;;;7.50;;
22144;SDS011;11238;48.730;11.566;2022-10-17T07:11:48;18.77;;;7.10;;
22144;SDS011;11238;48.730;11.566;2022-10-17T07:14:16;18.55;;;7.45;;
22144;SDS011;11238;48.730;11.566;2022-10-17T07:16:42;17.25;;;6.88;;
22144;SDS011;11238;48.730;11.566;2022-10-17T07:19:15;12.27;;;7.70;;
22144;SDS011;11238;48.730;11.566;2022-10-17T07:21:41;14.68;;;7.47;;
22144;SDS011;11238;48.730;11.566;2022-10-17T07:24:09;20.75;;;7.95;;
22144;SDS011;11238;48.730;11.566;2022-10-17T07:26:36;16.85;;;8.40;;
22144;SDS011;11238;48.730;11.566;2022-10-17T07:29:02;23.20;;;8.43;;
22144;SDS011;11238;48.730;11.566;2022-10-17T07:31:51;11.63;;;8.32;;
22144;SDS011;11238;48.730;11.566;2022-10-17T07:34:17;13.27;;;7.88;;
22144;SDS011;11238;48.730;11.566;2022-10-17T07:36:43;14.63;;;7.70;;
22144;SDS011;11238;48.730;11.566;2022-10-17T07:39:12;11.32;;;7.90;;
22144;SDS011;11238;48.730;11.566;2022-10-17T07:41:39;10.82;;;7.55;;
22144;SDS011;11238;48.730;11.566;2022-10-17T07:44:05;13.73;;;8.20;;
22144;SDS011;11238;48.730;11.566;2022-10-17T07:46:35;12.13;;;8.00;;
22144;SDS011;11238;48.730;11.566;2022-10-17T07:49:01;17.45;;;8.20;;
22144;SDS011;11238;48.730;11.566;2022-10-17T07:51:27;11.60;;;8.45;;
22144;SDS011;11238;48.730;11.566;2022-10-17T07:53:53;11.70;;;8.50;;
22144;SDS011;11238;48.730;11.566;2022-10-17T07:56:19;11.88;;;9.07;;
22144;SDS011;11238;48.730;11.566;2022-10-17T07:58:48;17.80;;;9.43;;
22144;SDS011;11238;48.730;11.566;2022-10-17T08:01:15;11.35;;;9.20;;
22144;SDS011;11238;48.730;11.566;2022-10-17T08:03:45;9.45;;;8.20;;
22144;SDS011;11238;48.730;11.566;2022-10-17T08:06:13;12.98;;;8.82;;
22144;SDS011;11238;48.730;11.566;2022-10-17T08:08:39;33.80;;;9.20;;
22144;SDS011;11238;48.730;11.566;2022-10-17T08:11:07;10.80;;;8.75;;
22144;SDS011;11238;48.730;11.566;2022-10-17T08:13:34;15.90;;;9.15;;
22144;SDS011;11238;48.730;11.566;2022-10-17T08:16:01;72.88;;;8.82;;
22144;SDS011;11238;48.730;11.566;2022-10-17T08:18:29;13.70;;;9.27;;
22144;SDS011;11238;48.730;11.566;2022-10-17T08:20:58;10.35;;;9.00;;
22144;SDS011;11238;48.730;11.566;2022-10-17T08:23:24;10.55;;;9.45;;
22144;SDS011;11238;48.730;11.566;2022-10-17T08:25:50;10.27;;;9.13;;
22144;SDS011;11238;48.730;11.566;2022-10-17T08:28:16;17.38;;;9.80;;
22144;SDS011;11238;48.730;11.566;2022-10-17T08:30:42;11.13;;;9.90;;
22144;SDS011;11238;48.730;11.566;2022-10-17T08:33:07;14.38;;;9.25;;
22144;SDS011;11238;48.730;11.566;2022-10-17T08:35:33;36.42;;;9.70;;
22144;SDS011;11238;48.730;11.566;2022-10-17T08:37:59;38.53;;;9.35;;
22144;SDS011;11238;48.730;11.566;2022-10-17T08:40:29;37.25;;;8.85;;
22144;SDS011;11238;48.730;11.566;2022-10-17T08:45:37;14.35;;;10.98;;
22144;SDS011;11238;48.730;11.566;2022-10-17T08:48:21;13.55;;;9.95;;
22144;SDS011;11238;48.730;11.566;2022-10-17T08:50:55;12.20;;;9.45;;
22144;SDS011;11238;48.730;11.566;2022-10-17T08:53:46;15.05;;;9.95;;
22144;SDS011;11238;48.730;11.566;2022-10-17T08:56:18;11.75;;;9.90;;
22144;SDS011;11238;48.730;11.566;2022-10-17T08:58:49;15.80;;;10.32;;
22144;SDS011;11238;48.730;11.566;2022-10-17T09:06:56;10.80;;;9.25;;
22144;SDS011;11238;48.730;11.566;2022-10-17T09:10:03;11.63;;;9.40;;
22144;SDS011;11238;48.730;11.566;2022-10-17T09:12:35;9.95;;;8.52;;
22144;SDS011;11238;48.730;11.566;2022-10-17T09:18:03;11.90;;;9.23;;
22144;SDS011;11238;48.730;11.566;2022-10-17T09:20:47;10.95;;;9.85;;
22144;SDS011;11238;48.730;11.566;2022-10-17T09:23:29;12.88;;;9.90;;
22144;SDS011;11238;48.730;11.566;2022-10-17T09:26:00;12.85;;;9.32;;
22144;SDS011;11238;48.730;11.566;2022-10-17T09:28:36;11.35;;;9.30;;
22144;SDS011;11238;48.730;11.566;2022-10-17T09:31:05;15.38;;;10.68;;
22144;SDS011;11238;48.730;11.566;2022-10-17T09:33:53;12.90;;;9.75;;
22144;SDS011;11238;48.730;11.566;2022-10-17T09:36:22;10.98;;;9.00;;
22144;SDS011;11238;48.730;11.566;2022-10-17T09:38:59;12.98;;;9.90;;
22144;SDS011;11238;48.730;11.566;2022-10-17T09:41:32;11.98;;;8.80;;
22144;SDS011;11238;48.730;11.566;2022-10-17T09:44:15;11.98;;;9.48;;
22144;SDS011;11238;48.730;11.566;2022-10-17T09:49:39;10.00;;;9.00;;
22144;SDS011;11238;48.730;11.566;2022-10-17T09:54:58;11.82;;;9.15;;
22144;SDS011;11238;48.730;11.566;2022-10-17T10:00:37;9.30;;;8.40;;
22144;SDS011;11238;48.730;11.566;2022-10-17T10:06:01;9.10;;;7.93;;
22144;SDS011;11238;48.730;11.566;2022-10-17T10:08:37;8.63;;;6.85;;
22144;SDS011;11238;48.730;11.566;2022-10-17T10:14:19;7.63;;;6.93;;
22144;SDS011;11238;48.730;11.566;2022-10-17T10:16:48;7.07;;;6.38;;
22144;SDS011;11238;48.730;11.566;2022-10-17T10:19:20;7.10;;;5.90;;
22144;SDS011;11238;48.730;11.566;2022-10-17T10:21:53;7.07;;;6.38;;
22144;SDS011;11238;48.730;11.566;2022-10-17T10:24:21;7.65;;;5.60;;
22144;SDS011;11238;48.730;11.566;2022-10-17T10:26:49;8.00;;;5.80;;
22144;SDS011;11238;48.730;11.566;2022-10-17T10:29:26;6.60;;;5.70;;
22144;SDS011;11238;48.730;11.566;2022-10-17T10:32:23;6.03;;;5.28;;
22144;SDS011;11238;48.730;11.566;2022-10-17T10:37:27;6.15;;;5.20;;
22144;SDS011;11238;48.730;11.566;2022-10-17T10:39:58;7.93;;;5.25;;
22144;SDS011;11238;48.730;11.566;2022-10-17T10:42:30;11.45;;;4.75;;
22144;SDS011;11238;48.730;11.566;2022-10-17T10:45:10;8.25;;;4.93;;
22144;SDS011;11238;48.730;11.566;2022-10-17T10:47:49;6.28;;;4.85;;
22144;SDS011;11238;48.730;11.566;2022-10-17T10:50:24;7.20;;;4.93;;
22144;SDS011;11238;48.730;11.566;2022-10-17T11:01:13;4.82;;;4.32;;
22144;SDS011;11238;48.730;11.566;2022-10-17T11:06:32;6.03;;;4.75;;
22144;SDS011;11238;48.730;11.566;2022-10-17T11:09:08;6.68;;;5.10;;
22144;SDS011;11238;48.730;11.566;2022-10-17T11:18:32;5.00;;;4.13;;
22144;SDS011;11238;48.730;11.566;2022-10-17T11:20:35;5.55;;;4.00;;
22144;SDS011;11238;48.730;11.566;2022-10-17T11:23:29;5.93;;;3.85;;
22144;SDS011;11238;48.730;11.566;2022-10-17T11:25:59;5.13;;;4.05;;
22144;SDS011;11238;48.730;11.566;2022-10-17T11:28:27;5.82;;;3.75;;
22144;SDS011;11238;48.730;11.566;2022-10-17T11:30:59;7.18;;;4.30;;
22144;SDS011;11238;48.730;11.566;2022-10-17T11:33:51;7.65;;;3.97;;
22144;SDS011;11238;48.730;11.566;2022-10-17T11:36:29;6.22;;;4.18;;
22144;SDS011;11238;48.730;11.566;2022-10-17T11:39:04;5.60;;;3.63;;
22144;SDS011;11238;48.730;11.566;2022-10-17T11:41:42;6.60;;;3.47;;
22144;SDS011;11238;48.730;11.566;2022-10-17T11:44:24;7.20;;;3.60;;
22144;SDS011;11238;48.730;11.566;2022-10-17T11:46:57;4.47;;;3.95;;
22144;SDS011;11238;48.730;11.566;2022-10-17T11:49:33;6.70;;;3.72;;
22144;SDS011;11238;48.730;11.566;2022-10-17T11:54:50;3.50;;;3.20;;
22144;SDS011;11238;48.730;11.566;2022-10-17T12:00:20;3.95;;;2.92;;
22144;SDS011;11238;48.730;11.566;2022-10-17T12:02:53;8.52;;;3.50;;
22144;SDS011;11238;48.730;11.566;2022-10-17T12:08:19;7.25;;;3.92;;
22144;SDS011;11238;48.730;11.566;2022-10-17T12:10:59;5.50;;;3.45;;
22144;SDS011;11238;48.730;11.566;2022-10-17T12:15:57;5.03;;;3.22;;
22144;SDS011;11238;48.730;11.566;2022-10-17T12:18:43;6.22;;;4.00;;
22144;SDS011;11238;48.730;11.566;2022-10-17T12:21:09;9.00;;;4.90;;
22144;SDS011;11238;48.730;11.566;2022-10-17T12:23:35;8.07;;;5.53;;
22144;SDS011;11238;48.730;11.566;2022-10-17T12:26:04;7.63;;;5.28;;
22144;SDS011;11238;48.730;11.566;2022-10-17T12:28:32;10.05;;;5.43;;
22144;SDS011;11238;48.730;11.566;2022-10-17T12:33:37;9.70;;;5.78;;
22144;SDS011;11238;48.730;11.566;2022-10-17T12:38:45;7.72;;;5.78;;
22144;SDS011;11238;48.730;11.566;2022-10-17T12:46:50;8.00;;;5.00;;
22144;SDS011;11238;48.730;11.566;2022-10-17T12:49:52;6.72;;;4.28;;
22144;SDS011;11238;48.730;11.566;2022-10-17T12:52:24;6.53;;;4.45;;
22144;SDS011;11238;48.730;11.566;2022-10-17T13:00:17;6.22;;;4.40;;
22144;SDS011;11238;48.730;11.566;2022-10-17T13:03:02;6.90;;;4.80;;
22144;SDS011;11238;48.730;11.566;2022-10-17T13:05:40;5.95;;;4.93;;
22144;SDS011;11238;48.730;11.566;2022-10-17T13:08:22;6.65;;;4.57;;
22144;SDS011;11238;48.730;11.566;2022-10-17T13:10:51;7.15;;;5.22;;
22144;SDS011;11238;48.730;11.566;2022-10-17T13:13:20;5.32;;;4.68;;
22144;SDS011;11238;48.730;11.566;2022-10-17T13:16:02;5.78;;;4.50;;
22144;SDS011;11238;48.730;11.566;2022-10-17T13:18:28;5.53;;;4.70;;
22144;SDS011;11238;48.730;11.566;2022-10-17T13:20:59;7.93;;;5.43;;
22144;SDS011;11238;48.730;11.566;2022-10-17T13:23:31;6.43;;;5.20;;
22144;SDS011;11238;48.730;11.566;2022-10-17T13:26:19;6.15;;;4.90;;
22144;SDS011;11238;48.730;11.566;2022-10-17T13:31:35;5.90;;;4.80;;
22144;SDS011;11238;48.730;11.566;2022-10-17T13:34:04;7.40;;;4.40;;
22144;SDS011;11238;48.730;11.566;2022-10-17T13:36:31;7.38;;;4.75;;
22144;SDS011;11238;48.730;11.566;2022-10-17T13:38:59;5.50;;;4.70;;
22144;SDS011;11238;48.730;11.566;2022-10-17T13:41:32;6.60;;;4.90;;
22144;SDS011;11238;48.730;11.566;2022-10-17T13:43:59;5.22;;;4.32;;
22144;SDS011;11238;48.730;11.566;2022-10-17T13:46:28;7.90;;;4.30;;
22144;SDS011;11238;48.730;11.566;2022-10-17T13:48:57;3.70;;;3.40;;
22144;SDS011;11238;48.730;11.566;2022-10-17T13:51:24;4.82;;;3.63;;
22144;SDS011;11238;48.730;11.566;2022-10-17T13:53:51;4.53;;;3.75;;
22144;SDS011;11238;48.730;11.566;2022-10-17T13:56:19;8.85;;;3.78;;
22144;SDS011;11238;48.730;11.566;2022-10-17T13:58:47;6.82;;;3.65;;
22144;SDS011;11238;48.730;11.566;2022-10-17T14:01:26;5.20;;;3.83;;
22144;SDS011;11238;48.730;11.566;2022-10-17T14:03:53;3.85;;;3.13;;
22144;SDS011;11238;48.730;11.566;2022-10-17T14:06:20;5.25;;;3.40;;
22144;SDS011;11238;48.730;11.566;2022-10-17T14:11:31;3.80;;;3.10;;
22144;SDS011;11238;48.730;11.566;2022-10-17T14:13:59;9.48;;;3.78;;
22144;SDS011;11238;48.730;11.566;2022-10-17T14:16:32;4.57;;;3.55;;
22144;SDS011;11238;48.730;11.566;2022-10-17T14:19:22;3.70;;;3.20;;
22144;SDS011;11238;48.730;11.566;2022-10-17T14:21:51;4.53;;;3.50;;
22144;SDS011;11238;48.730;11.566;2022-10-17T14:29:21;6.63;;;3.45;;
22144;SDS011;11238;48.730;11.566;2022-10-17T14:31:55;8.07;;;3.10;;
22144;SDS011;11238;48.730;11.566;2022-10-17T14:34:25;6.35;;;3.55;;
22144;SDS011;11238;48.730;11.566;2022-10-17T14:36:55;5.28;;;3.45;;
22144;SDS011;11238;48.730;11.566;2022-10-17T14:39:22;5.53;;;3.40;;
22144;SDS011;11238;48.730;11.566;2022-10-17T14:41:50;6.10;;;2.88;;
22144;SDS011;11238;48.730;11.566;2022-10-17T14:44:24;5.43;;;3.47;;
22144;SDS011;11238;48.730;11.566;2022-10-17T14:46:56;8.60;;;3.30;;
22144;SDS011;11238;48.730;11.566;2022-10-17T14:49:40;5.97;;;3.22;;
22144;SDS011;11238;48.730;11.566;2022-10-17T14:54:35;9.10;;;4.30;;
22144;SDS011;11238;48.730;11.566;2022-10-17T14:57:08;7.72;;;4.13;;
22144;SDS011;11238;48.730;11.566;2022-10-17T14:59:46;6.70;;;3.47;;
22144;SDS011;11238;48.730;11.566;2022-10-17T15:02:12;5.75;;;3.33;;
22144;SDS011;11238;48.730;11.566;2022-10-17T15:04:38;5.47;;;3.30;;
22144;SDS011;11238;48.730;11.566;2022-10-17T15:07:03;5.55;;;3.10;;
22144;SDS011;11238;48.730;11.566;2022-10-17T15:09:29;4.82;;;3.10;;
22144;SDS011;11238;48.730;11.566;2022-10-17T15:11:57;8.27;;;3.45;;
22144;SDS011;11238;48.730;11.566;2022-10-17T15:14:26;7.78;;;3.22;;
22144;SDS011;11238;48.730;11.566;2022-10-17T15:16:52;9.88;;;3.30;;
22144;SDS011;11238;48.730;11.566;2022-10-17T15:19:18;13.27;;;3.58;;
22144;SDS011;11238;48.730;11.566;2022-10-17T15:21:44;5.25;;;2.97;;
22144;SDS011;11238;48.730;11.566;2022-10-17T15:24:09;10.00;;;3.63;;
22144;SDS011;11238;48.730;11.566;2022-10-17T15:26:35;9.15;;;3.35;;
22144;SDS011;11238;48.730;11.566;2022-10-17T15:29:02;7.90;;;3.22;;
22144;SDS011;11238;48.730;11.566;2022-10-17T15:31:28;7.43;;;3.70;;
22144;SDS011;11238;48.730;11.566;2022-10-17T15:33:58;6.75;;;3.40;;
22144;SDS011;11238;48.730;11.566;2022-10-17T15:36:25;6.47;;;3.40;;
22144;SDS011;11238;48.730;11.566;2022-10-17T15:38:54;5.18;;;3.35;;
22144;SDS011;11238;48.730;11.566;2022-10-17T15:41:26;3.70;;;2.97;;
22144;SDS011;11238;48.730;11.566;2022-10-17T15:43:53;4.90;;;3.40;;
22144;SDS011;11238;48.730;11.566;2022-10-17T15:46:20;8.48;;;3.35;;
22144;SDS011;11238;48.730;11.566;2022-10-17T15:48:49;5.65;;;3.40;;
22144;SDS011;11238;48.730;11.566;2022-10-17T15:51:16;8.23;;;3.20;;
22144;SDS011;11238;48.730;11.566;2022-10-17T15:53:42;6.18;;;3.40;;
22144;SDS011;11238;48.730;11.566;2022-10-17T15:56:13;8.30;;;3.45;;
22144;SDS011;11238;48.730;11.566;2022-10-17T15:58:47;6.88;;;3.20;;
22144;SDS011;11238;48.730;11.566;2022-10-17T16:01:18;11.38;;;3.47;;
22144;SDS011;11238;48.730;11.566;2022-10-17T16:03:46;13.18;;;3.63;;
22144;SDS011;11238;48.730;11.566;2022-10-17T16:06:14;7.47;;;3.10;;
22144;SDS011;11238;48.730;11.566;2022-10-17T16:08:40;8.90;;;3.53;;
22144;SDS011;11238;48.730;11.566;2022-10-17T16:11:05;8.60;;;3.15;;
22144;SDS011;11238;48.730;11.566;2022-10-17T16:13:40;11.20;;;3.97;;
22144;SDS011;11238;48.730;11.566;2022-10-17T16:16:10;7.70;;;3.45;;
22144;SDS011;11238;48.730;11.566;2022-10-17T16:18:36;14.95;;;4.90;;
22144;SDS011;11238;48.730;11.566;2022-10-17T16:21:02;6.65;;;3.58;;
22144;SDS011;11238;48.730;11.566;2022-10-17T16:23:28;7.97;;;4.13;;
22144;SDS011;11238;48.730;11.566;2022-10-17T16:25:54;6.78;;;3.97;;
22144;SDS011;11238;48.730;11.566;2022-10-17T16:28:19;10.23;;;5.07;;
22144;SDS011;11238;48.730;11.566;2022-10-17T16:30:45;15.70;;;11.05;;
22144;SDS011;11238;48.730;11.566;2022-10-17T16:33:11;21.38;;;12.95;;
22144;SDS011;11238;48.730;11.566;2022-10-17T16:35:37;19.73;;;13.20;;
22144;SDS011;11238;48.730;11.566;2022-10-17T16:38:03;21.30;;;16.45;;